Flight Track Log - Related Links

Times and Time Zones

All times are in EDT time to prevent confusion due to time zone crossing. See the OPT732 flight status page for this flight to view local times or setup timezone preferences in your user account.

Time Position Orientation Groundspeed Altitude Reporting Facility
EDT Latitude Longitude Course Direction KTS MPH feet Rate Location/Type
Tue 07:20:38 PM 40.9000 -74.0333 278° West 195 224 2,100  Level New York TRACON
Tue 07:21:38 PM 40.9167 -74.0833 294° West 219 252 3,600 1,900 Climbing New York TRACON
Tue 07:22:38 PM 40.9167 -74.1833 270° West 265 305 5,900 2,250 Climbing New York TRACON
Tue 07:23:38 PM 40.9000 -74.2833 258° West 284 327 8,100 3,050 Climbing New York TRACON
Tue 07:24:38 PM 40.9000 -74.3833 270° West 276 318 12,000 3,520 Climbing New York TRACON
Tue 07:24:53 PM 40.8886 -74.4161 245° Southwest 281 323 12,500 1,500 Climbing New York Center
Tue 07:25:54 PM 40.9008 -74.4964 281° West 281 323 13,900 2,281 Climbing New York Center
Tue 07:26:00 PM 40.9462 -75.0025 278° West  Level Estimated
Tue 07:26:54 PM 40.9436 -74.5894 301° West 269 310 17,100  Level New York Center
Tue 07:27:53 PM 40.9425 -74.6883 269° West 279 321 17,100  Level New York Center
Tue 07:28:53 PM 40.9356 -74.8308 266° West 334 384 17,100  Level New York Center
Tue 07:29:53 PM 40.9289 -74.9594 266° West 379 436 17,100 595 Level New York Center
Tue 07:30:54 PM 40.9214 -75.1128 266° West 390 449 18,300 1,613 Climbing New York Center
Tue 07:31:52 PM 40.8997 -75.2486 258° West 379 436 20,300 2,034 Climbing New York Center
Tue 07:32:52 PM 40.8717 -75.3811 254° West 384 442 22,300 1,983 Climbing New York Center
Tue 07:33:53 PM 40.8392 -75.5189 253° West 389 448 24,300 1,785 Climbing New York Center
Tue 07:34:53 PM 40.8111 -75.6431 253° West 395 455 25,900 1,785 Climbing New York Center
Tue 07:35:54 PM 40.7758 -75.7858 252° West 400 460 27,900 2,067 Climbing New York Center
Tue 07:36:52 PM 40.7406 -75.9311 252° West 407 468 30,000 2,085 Climbing New York Center
Tue 07:37:52 PM 40.7050 -76.0764 252° West 413 475 32,000 1,983 Climbing New York Center
Tue 07:38:53 PM 40.6708 -76.2297 254° West 433 498 34,000 1,983 Climbing New York Center
Tue 07:39:53 PM 40.6842 -76.3894 276° West 433 498 36,000 1,950 Climbing New York Center
Tue 07:40:53 PM 40.7078 -76.5475 281° West 440 506 37,900 992 Climbing New York Center
Tue 07:41:54 PM 40.7331 -76.7139 281° West 452 520 38,000 50 Climbing New York Center
Tue 07:42:54 PM 40.7669 -76.8678 286° West 452 520 38,000  Level New York Center
Tue 07:43:52 PM 40.8197 -77.0122 296° West 447 514 38,000  Level New York Center
Tue 07:44:52 PM 40.8722 -77.1625 295° West 442 509 38,000 -86 Level New York Center
Tue 07:47:21 PM 40.9261 -77.5736 280° West 445 512 37,700 -775 Descending Cleveland Center
Tue 07:48:21 PM 40.9303 -77.7439 272° West 450 518 35,300 -2,450 Descending Cleveland Center
Tue 07:49:21 PM 40.9367 -77.9169 273° West 463 533 32,800 -1,650 Descending Cleveland Center
Tue 07:50:21 PM 40.9550 -78.0811 278° West 468 539 32,000 -400 Descending Cleveland Center
Tue 07:51:21 PM 40.9814 -78.2453 282° West 461 531 32,000  Level Cleveland Center
Tue 07:52:21 PM 41.0072 -78.3900 283° West 461 531 32,000  Level Cleveland Center
Tue 07:53:21 PM 41.0311 -78.5517 281° West 456 525 32,000  Level Cleveland Center
Tue 07:54:21 PM 41.0567 -78.7161 282° West 456 525 32,000  Level Cleveland Center
Tue 07:55:21 PM 41.0800 -78.8781 281° West 456 525 32,000  Level Cleveland Center
Tue 07:56:21 PM 41.1053 -79.0428 282° West 456 525 32,000  Level Cleveland Center
Tue 07:57:21 PM 41.1286 -79.2214 280° West 456 525 32,000  Level Cleveland Center
Tue 07:58:21 PM 41.1511 -79.3669 282° West 456 525 32,000  Level Cleveland Center
Tue 07:59:21 PM 41.1756 -79.5294 281° West 456 525 32,000  Level Cleveland Center
Tue 08:00:21 PM 41.1978 -79.7111 279° West 451 519 32,000 -700 Level Cleveland Center
Tue 08:01:21 PM 41.2219 -79.8736 281° West 451 519 30,600 -1,600 Descending Cleveland Center
Tue 08:02:21 PM 41.2436 -80.0225 281° West 446 513 28,800 -1,900 Descending Cleveland Center
Tue 08:03:21 PM 41.2653 -80.1881 280° West 451 519 26,800 -2,300 Descending Cleveland Center
Tue 08:04:21 PM 41.2886 -80.3539 281° West 451 519 24,200 -2,550 Descending Cleveland Center
Tue 08:05:21 PM 41.3075 -80.5003 280° West 425 489 21,700 -2,500 Descending Cleveland Center
Tue 08:06:21 PM 41.3283 -80.6494 281° West 418 481 19,200 -2,500 Descending Cleveland Center
Tue 08:07:21 PM 41.3700 -80.7822 293° West 397 457 16,700 -2,350 Descending Cleveland Center
Tue 08:08:21 PM 41.4217 -80.9153 297° West 381 438 14,500 -2,368 Descending Cleveland Center
Tue 08:08:37 PM 41.4342 -80.9514 295° West 363 418 13,700 -2,400 Descending Cleveland Center
Tue 08:09:01 PM 41.4506 -80.9958 296° West 363 418 12,900 -1,909 Descending Cleveland Center
Tue 08:09:21 PM 41.4650 -81.0319 298° West 364 419 12,300 -1,967 Descending Cleveland Center
Tue 08:10:02 PM 41.4919 -81.1014 297° West 293 337 10,900 -1,800 Descending Cleveland Center
Tue 08:10:21 PM 41.5022 -81.1294 296° West 322 371 10,500 -900 Descending Cleveland Center
Tue 08:11:02 PM 41.5122 -81.1986 281° West 270 311 10,000 -500 Descending Cleveland Center
Tue 08:11:21 PM 41.5078 -81.2319 260° West 276 318 10,000  Level Cleveland Center
Tue 08:12:03 PM 41.4969 -81.3011 258° West 276 318 10,000  Level Cleveland Center
Tue 08:12:21 PM 41.4947 -81.3289 264° West 276 318 10,000  Level Cleveland Center
Tue 08:13:04 PM 41.4839 -81.4008 259° West 281 323 10,000  Level Cleveland Center
Tue 08:13:21 PM 41.4794 -81.4311 259° West 276 318 10,000  Level Cleveland Center
Tue 08:14:04 PM 41.4706 -81.5031 261° West 282 325 10,000 -200 Level Cleveland Center
Tue 08:14:21 PM 41.4619 -81.5336 249° West 281 323 9,800 -1,701 Descending Cleveland Center
Tue 08:15:11 PM 41.4403 -81.6164 251° West 278 320 8,100 -1,600 Descending Cleveland Center
Tue 08:16:06 PM 41.4186 -81.7044 252° West 278 320 7,000 -943 Descending Cleveland Center
Tue 08:16:21 PM 41.4081 -81.7239 234° Southwest 281 323 7,000  Level Cleveland Center
Tue 08:17:07 PM 41.3678 -81.7867 229° Southwest 262 302 7,000 -170 Level Cleveland Center
Tue 08:18:07 PM 41.3317 -81.8469 231° Southwest 196 226 6,700 -744 Descending Cleveland Center
Tue 08:19:08 PM 41.2997 -81.9069 235° Southwest 198 228 5,500 -1,279 Descending Cleveland Center
Tue 08:20:09 PM 41.2992 -81.9678 269° West 200 230 4,100 -1,131 Descending Cleveland Center
Tue 08:21:10 PM 41.3408 -81.9658 North 167 192 3,200 -893 Descending Cleveland Center
Tue 08:22:10 PM 41.3642 -81.9278 51° Northeast 122 140 2,300 -1,041 Descending Cleveland Center
Tue 08:23:11 PM 41.3917 -81.8894 46° Northeast 141 162 1,100 -1,180 Descending Cleveland Center

Login

Don't have an account? Register now (free) for customized features, flight alerts, and more!